Time;durP1;ratioP1;P1;durP2;ratioP2;P2;SDS_P1;SDS_P2;PMS_P1;PMS_P2;Temp;Humidity;BMP_temperature;BMP_pressure;BME280_temperature;BME280_humidity;BME280_pressure;Samples;Min_cycle;Max_cycle;Signal;HPM_P1;HPM_P2
2021/12/01 00:00:21;;;;;;;1081.50;999.90;;;;;;;3.91;67.93;99895.53;683819;28;91585;-68
2021/12/01 00:00:42;;;;;;;1079.90;999.90;;;;;;;3.91;67.96;99901.69;682613;28;113511;-68
2021/12/01 00:01:05;;;;;;;1085.35;999.90;;;;;;;3.90;68.18;99894.69;685474;28;23361;-67
2021/12/01 00:01:36;;;;;;;1078.93;999.90;;;;;;;3.94;68.08;99897.88;683576;28;96698;-68
2021/12/01 00:01:57;;;;;;;1082.38;999.90;;;;;;;3.94;67.79;99897.88;685923;28;22399;-68
2021/12/01 00:02:19;;;;;;;1083.47;999.90;;;;;;;3.94;67.87;99898.72;685228;28;45248;-68
2021/12/01 00:02:41;;;;;;;1083.40;999.90;;;;;;;3.94;67.81;99901.38;685471;28;23263;-68
2021/12/01 00:03:03;;;;;;;1084.40;999.90;;;;;;;3.95;67.81;99902.25;684283;28;67477;-68
2021/12/01 00:03:24;;;;;;;1089.38;999.90;;;;;;;3.95;67.92;99897.72;685962;28;24204;-68
2021/12/01 00:03:47;;;;;;;1088.20;999.90;;;;;;;3.97;67.56;99905.59;685086;28;45298;-68
2021/12/01 00:04:08;;;;;;;1083.35;999.90;;;;;;;3.97;67.56;99908.28;685228;28;46586;-68
2021/12/01 00:04:29;;;;;;;1083.20;999.90;;;;;;;3.99;67.64;99902.78;685393;28;44662;-67
2021/12/01 00:04:51;;;;;;;1079.15;999.90;;;;;;;3.98;67.59;99904.59;686196;28;23478;-68
2021/12/01 00:05:13;;;;;;;1081.70;999.90;;;;;;;3.97;67.68;99906.44;685800;28;23456;-68
2021/12/01 00:05:36;;;;;;;1089.15;999.90;;;;;;;3.97;67.43;99909.09;684288;28;69399;-67
2021/12/01 00:05:57;;;;;;;1089.15;999.90;;;;;;;3.95;67.61;99904.91;683301;28;69441;-67
2021/12/01 00:06:19;;;;;;;1088.28;999.90;;;;;;;3.95;67.52;99899.59;686188;28;21535;-68
2021/12/01 00:06:41;;;;;;;1081.50;999.90;;;;;;;3.95;67.45;99900.41;685849;28;22412;-68
2021/12/01 00:07:03;;;;;;;1083.18;999.90;;;;;;;3.96;67.36;99902.06;685724;28;69427;-68
2021/12/01 00:07:24;;;;;;;1084.97;999.90;;;;;;;3.95;67.75;99891.56;685590;28;43788;-68
2021/12/01 00:07:46;;;;;;;1086.50;999.90;;;;;;;3.94;67.40;99896.03;684319;28;23485;-68
2021/12/01 00:08:08;;;;;;;1087.55;999.90;;;;;;;3.93;67.67;99899.72;685800;28;23591;-69
2021/12/01 00:08:30;;;;;;;1087.82;999.90;;;;;;;3.93;67.39;99905.06;684129;28;69509;-69
2021/12/01 00:08:51;;;;;;;1087.72;999.90;;;;;;;3.94;67.78;99903.22;685582;28;22286;-68
2021/12/01 00:09:12;;;;;;;1087.05;999.90;;;;;;;3.92;67.52;99905.22;685536;28;48213;-68
2021/12/01 00:09:35;;;;;;;1089.90;999.90;;;;;;;3.92;67.41;99906.06;686095;28;22382;-69
2021/12/01 00:09:56;;;;;;;1084.47;999.90;;;;;;;3.90;67.53;99902.72;684864;28;69143;-68
2021/12/01 00:10:19;;;;;;;1082.18;999.90;;;;;;;3.92;67.50;99903.38;686993;28;21513;-68
2021/12/01 00:10:41;;;;;;;1087.47;999.90;;;;;;;3.92;67.47;99902.56;684629;28;69396;-69
2021/12/01 00:11:04;;;;;;;1084.45;999.90;;;;;;;3.89;67.55;99901.03;685749;28;45234;-68
2021/12/01 00:11:25;;;;;;;1087.80;999.90;;;;;;;3.90;67.73;99897.38;686516;28;33310;-69
2021/12/01 00:11:47;;;;;;;1090.20;999.90;;;;;;;3.90;67.48;99904.53;686364;28;22455;-68
2021/12/01 00:12:08;;;;;;;1088.60;999.90;;;;;;;3.91;67.34;99909.72;685869;28;23350;-69
2021/12/01 00:12:30;;;;;;;1089.63;999.90;;;;;;;3.91;67.37;99909.72;685965;28;23215;-68
2021/12/01 00:12:52;;;;;;;1089.65;999.90;;;;;;;3.88;67.31;99904.69;684667;28;22448;-68
2021/12/01 00:13:17;;;;;;;1087.55;999.90;;;;;;;3.88;67.62;99903.84;684798;28;69219;-68
2021/12/01 00:13:38;;;;;;;1087.07;999.90;;;;;;;3.89;67.49;99906.38;681613;28;114838;-68
2021/12/01 00:14:01;;;;;;;1087.20;999.90;;;;;;;3.86;67.30;99906.66;684862;28;44385;-68
2021/12/01 00:14:23;;;;;;;1085.97;999.90;;;;;;;3.88;67.40;99904.69;685438;28;45252;-68
2021/12/01 00:14:44;;;;;;;1085.90;999.90;;;;;;;3.88;67.57;99904.69;685064;28;44168;-68
2021/12/01 00:15:06;;;;;;;1084.15;999.90;;;;;;;3.89;67.35;99908.22;685753;28;21526;-68
2021/12/01 00:15:28;;;;;;;1087.63;999.90;;;;;;;3.86;67.27;99901.34;685101;28;44363;-68
2021/12/01 00:15:52;;;;;;;1082.10;999.90;;;;;;;3.87;67.29;99903.03;685164;28;45222;-68
2021/12/01 00:16:13;;;;;;;1082.50;999.90;;;;;;;3.88;67.54;99904.69;683900;28;92229;-68
2021/12/01 00:16:34;;;;;;;1087.53;999.90;;;;;;;3.87;67.31;99905.69;685799;28;22456;-68
2021/12/01 00:16:56;;;;;;;1085.35;999.90;;;;;;;3.88;67.42;99899.34;684681;28;960;-68
2021/12/01 00:17:18;;;;;;;1086.10;999.90;;;;;;;3.89;67.45;99903.69;683813;28;44256;-68
2021/12/01 00:17:39;;;;;;;1089.35;999.90;;;;;;;3.89;67.60;99900.19;682512;28;45248;-68
2021/12/01 00:18:01;;;;;;;1090.35;999.90;;;;;;;3.88;67.29;99899.34;684802;28;1042;-68
2021/12/01 00:18:24;;;;;;;1085.47;999.90;;;;;;;3.88;67.29;99895.84;685147;28;1536;-68
2021/12/01 00:18:46;;;;;;;1086.95;999.90;;;;;;;3.88;67.46;99893.16;684689;28;22339;-68
2021/12/01 00:19:08;;;;;;;1088.90;999.90;;;;;;;3.87;67.37;99896.81;684310;28;69361;-68
2021/12/01 00:19:29;;;;;;;1086.10;999.90;;;;;;;3.86;67.24;99892.50;686774;28;22407;-69
2021/12/01 00:19:51;;;;;;;1092.82;999.90;;;;;;;3.86;67.33;99896.00;685367;28;23467;-68
2021/12/01 00:20:17;;;;;;;1089.70;999.90;;;;;;;3.86;67.35;99895.16;686456;28;47222;-68
2021/12/01 00:20:40;;;;;;;1090.45;999.90;;;;;;;3.86;67.44;99897.84;682713;28;139318;-68
2021/12/01 00:21:03;;;;;;;1086.22;999.90;;;;;;;3.87;67.54;99894.16;685045;28;69459;-68
2021/12/01 00:21:25;;;;;;;1082.18;999.90;;;;;;;3.87;67.29;99899.50;687154;28;22657;-68
2021/12/01 00:21:47;;;;;;;1082.20;999.90;;;;;;;3.87;67.26;99892.34;684489;28;67445;-68
2021/12/01 00:22:08;;;;;;;1081.18;999.90;;;;;;;3.87;67.39;99891.47;685927;28;23514;-68
2021/12/01 00:22:30;;;;;;;1083.30;999.90;;;;;;;3.86;67.23;99893.31;686080;28;22469;-68
2021/12/01 00:22:52;;;;;;;1083.82;999.90;;;;;;;3.87;67.11;99889.66;683458;28;69433;-68
2021/12/01 00:23:14;;;;;;;1082.65;999.90;;;;;;;3.88;67.33;99893.16;686718;28;21532;-68
2021/12/01 00:23:35;;;;;;;1087.95;999.90;;;;;;;3.87;67.35;99889.66;685443;28;46359;-68
2021/12/01 00:23:58;;;;;;;1087.97;999.90;;;;;;;3.87;67.41;99889.66;687003;28;23487;-68
2021/12/01 00:24:19;;;;;;;1086.93;999.90;;;;;;;3.89;67.25;99884.16;685303;28;69493;-68
2021/12/01 00:24:41;;;;;;;1085.53;999.90;;;;;;;3.88;66.99;99885.16;686411;28;22990;-68
2021/12/01 00:25:03;;;;;;;1084.05;999.90;;;;;;;3.87;67.05;99878.13;685631;28;46384;-68
2021/12/01 00:25:27;;;;;;;1086.40;999.90;;;;;;;3.87;67.14;99878.13;686378;28;13432;-68
2021/12/01 00:25:49;;;;;;;1087.22;999.90;;;;;;;3.87;66.99;99883.47;682912;28;45340;-68
2021/12/01 00:26:11;;;;;;;1086.30;999.90;;;;;;;3.87;67.26;99880.78;682675;28;69760;-68
2021/12/01 00:26:32;;;;;;;1081.68;999.90;;;;;;;3.86;67.02;99877.28;681616;28;19499;-68
2021/12/01 00:26:54;;;;;;;1082.15;999.90;;;;;;;3.87;67.26;99875.44;678012;29;46349;-68
2021/12/01 00:27:16;;;;;;;1085.00;999.90;;;;;;;3.87;67.29;99880.78;678936;29;22394;-68
2021/12/01 00:27:38;;;;;;;1084.93;999.90;;;;;;;3.86;67.25;99882.63;673387;29;46415;-68
2021/12/01 00:27:59;;;;;;;1086.97;999.90;;;;;;;3.87;66.89;99880.78;676543;29;46388;-68
2021/12/01 00:28:21;;;;;;;1081.38;999.90;;;;;;;3.87;66.95;99883.47;678326;28;46266;-68
2021/12/01 00:28:43;;;;;;;1079.60;999.90;;;;;;;3.86;66.91;99879.13;681265;28;22316;-68
2021/12/01 00:29:04;;;;;;;1080.28;999.90;;;;;;;3.85;67.01;99875.59;683807;28;18362;-68
2021/12/01 00:29:26;;;;;;;1080.10;999.90;;;;;;;3.86;67.14;99884.47;682226;28;44056;-68
2021/12/01 00:29:49;;;;;;;1082.75;999.90;;;;;;;3.84;66.80;99873.09;686484;28;21577;-68
2021/12/01 00:30:10;;;;;;;1079.05;999.90;;;;;;;3.86;66.99;99877.28;684013;28;92386;-68
2021/12/01 00:30:33;;;;;;;1080.22;999.90;;;;;;;3.86;66.84;99877.28;685256;28;44366;-68
2021/12/01 00:30:56;;;;;;;1084.78;999.90;;;;;;;3.86;67.24;99869.28;685191;28;70528;-67
2021/12/01 00:31:18;;;;;;;1087.30;999.90;;;;;;;3.87;66.94;99873.63;685098;28;67464;-68
2021/12/01 00:31:41;;;;;;;1085.35;999.90;;;;;;;3.87;67.01;99872.78;685308;28;22380;-69
2021/12/01 00:32:03;;;;;;;1085.57;999.90;;;;;;;3.86;66.86;99869.28;683656;28;93154;-68
2021/12/01 00:32:25;;;;;;;1084.80;999.90;;;;;;;3.86;67.12;99871.94;685941;28;27604;-68
2021/12/01 00:32:47;;;;;;;1089.80;999.90;;;;;;;3.85;66.66;99869.44;684544;28;23495;-68
2021/12/01 00:33:11;;;;;;;1086.20;999.90;;;;;;;3.85;67.05;99866.75;685196;28;46664;-68
2021/12/01 00:33:32;;;;;;;1086.43;999.90;;;;;;;3.85;66.84;99866.75;683205;28;92233;-68
2021/12/01 00:33:53;;;;;;;1087.45;999.90;;;;;;;3.84;66.79;99873.94;685007;28;46324;-68
2021/12/01 00:34:16;;;;;;;1088.43;999.90;;;;;;;3.84;66.99;99871.28;686627;28;21568;-68
2021/12/01 00:34:38;;;;;;;1084.43;999.90;;;;;;;3.84;66.89;99875.75;685769;28;44844;-68
2021/12/01 00:35:01;;;;;;;1080.45;999.90;;;;;;;3.80;66.78;99869.91;684985;28;68343;-68
2021/12/01 00:35:23;;;;;;;1082.97;999.90;;;;;;;3.82;66.78;99881.25;684470;28;69464;-67
2021/12/01 00:35:46;;;;;;;1083.63;999.90;;;;;;;3.82;66.88;99878.59;684736;28;46159;-67
2021/12/01 00:36:13;;;;;;;1078.20;999.90;;;;;;;3.82;66.98;99878.59;683488;28;47839;-68
2021/12/01 00:36:34;;;;;;;1080.68;999.90;;;;;;;3.82;66.92;99878.59;678929;28;160854;-68
2021/12/01 00:36:56;;;;;;;1079.80;999.90;;;;;;;3.78;67.10;99875.38;682591;28;45053;-68
2021/12/01 00:37:17;;;;;;;1080.73;999.90;;;;;;;3.80;66.92;99880.56;683613;28;21610;-68
2021/12/01 00:37:42;;;;;;;1082.88;999.90;;;;;;;3.80;66.93;99883.25;680857;28;46116;-68
2021/12/01 00:38:05;;;;;;;1083.47;999.90;;;;;;;3.80;66.92;99880.56;683615;28;45360;-68
2021/12/01 00:38:28;;;;;;;1080.10;999.90;;;;;;;3.80;67.10;99885.91;682398;28;69374;-68
2021/12/01 00:38:50;;;;;;;1080.75;999.90;;;;;;;3.79;66.96;99882.41;682116;28;69242;-68
2021/12/01 00:39:11;;;;;;;1084.72;999.90;;;;;;;3.79;66.85;99879.75;684043;28;21539;-68
2021/12/01 00:39:32;;;;;;;1080.97;999.90;;;;;;;3.79;66.96;99885.09;683018;28;46221;-68
2021/12/01 00:39:54;;;;;;;1082.63;999.90;;;;;;;3.81;66.92;99884.06;683725;28;23692;-68
2021/12/01 00:40:16;;;;;;;1079.20;999.90;;;;;;;3.81;67.23;99884.06;682454;28;44395;-68
2021/12/01 00:40:38;;;;;;;1082.22;999.90;;;;;;;3.82;67.00;99888.44;682325;28;46712;-68
2021/12/01 00:41:02;;;;;;;1078.32;999.90;;;;;;;3.81;67.23;99887.59;683270;28;22829;-68
2021/12/01 00:41:25;;;;;;;1073.63;999.90;;;;;;;3.81;67.23;99879.59;680214;28;113570;-68
2021/12/01 00:41:48;;;;;;;1080.15;999.90;;;;;;;3.79;66.92;99882.41;682151;28;69485;-68
2021/12/01 00:42:10;;;;;;;1076.57;999.90;;;;;;;3.81;66.97;99890.28;682316;28;69450;-68
2021/12/01 00:42:34;;;;;;;1072.82;999.90;;;;;;;3.82;67.11;99889.25;684631;28;1122;-68
2021/12/01 00:42:55;;;;;;;1075.10;999.90;;;;;;;3.83;67.03;99884.78;680526;28;89321;-68
2021/12/01 00:43:17;;;;;;;1076.78;999.90;;;;;;;3.83;67.01;99882.94;683457;28;14166;-68
2021/12/01 00:43:40;;;;;;;1067.53;995.45;;;;;;;3.83;66.88;99892.78;682096;28;45405;-68
2021/12/01 00:44:01;;;;;;;1074.80;999.90;;;;;;;3.82;67.05;99888.44;681401;28;66545;-68
2021/12/01 00:44:23;;;;;;;1077.35;999.90;;;;;;;3.81;66.82;99892.94;683265;28;23501;-68
2021/12/01 00:44:46;;;;;;;1080.47;999.90;;;;;;;3.80;66.89;99885.91;683104;28;19055;-68
2021/12/01 00:45:12;;;;;;;1079.00;999.90;;;;;;;3.79;66.85;99889.56;683430;28;69474;-68
2021/12/01 00:45:35;;;;;;;1076.88;999.90;;;;;;;3.79;66.97;99881.56;684269;28;59320;-68
2021/12/01 00:45:57;;;;;;;1079.13;999.90;;;;;;;3.78;67.12;99890.59;684438;28;69419;-67
2021/12/01 00:46:22;;;;;;;1080.80;999.90;;;;;;;3.75;67.06;99880.22;685304;28;46483;-68
2021/12/01 00:46:52;;;;;;;1076.68;999.90;;;;;;;3.77;66.96;99881.72;682452;28;115872;-68
2021/12/01 00:47:15;;;;;;;1076.40;999.90;;;;;;;3.77;67.06;99888.91;679238;28;138432;-68
2021/12/01 00:47:43;;;;;;;1073.57;999.90;;;;;;;3.76;66.92;99887.22;682860;28;4166;-68
2021/12/01 00:48:04;;;;;;;1072.15;999.55;;;;;;;3.76;67.01;99884.53;679214;28;136995;-68
2021/12/01 00:48:26;;;;;;;1066.65;994.47;;;;;;;3.76;67.00;99889.88;683305;28;24585;-68
2021/12/01 00:48:48;;;;;;;1069.07;996.85;;;;;;;3.76;67.04;99889.88;682121;28;46563;-68
2021/12/01 00:49:10;;;;;;;1078.57;999.90;;;;;;;3.74;67.13;99887.38;681836;28;69523;-68
2021/12/01 00:49:41;;;;;;;1072.22;999.75;;;;;;;3.77;67.19;99891.56;680383;28;98276;-68
2021/12/01 00:50:04;;;;;;;1070.35;998.25;;;;;;;3.77;67.26;99899.59;682152;28;46400;-68
2021/12/01 00:50:29;;;;;;;1070.60;998.45;;;;;;;3.77;67.26;99892.41;682242;28;46300;-68
2021/12/01 00:50:53;;;;;;;1071.03;998.72;;;;;;;3.76;67.35;99889.88;680956;28;113464;-68
2021/12/01 00:51:16;;;;;;;1071.13;998.88;;;;;;;3.74;67.11;99891.88;680540;28;92126;-68
2021/12/01 00:51:37;;;;;;;1066.72;994.67;;;;;;;3.75;67.18;99897.06;684792;28;67458;-68
2021/12/01 00:51:59;;;;;;;1066.95;994.92;;;;;;;3.75;67.23;99893.56;686928;28;22386;-68
2021/12/01 00:52:21;;;;;;;1072.53;999.90;;;;;;;3.75;67.35;99899.72;684895;28;69456;-68
2021/12/01 00:52:42;;;;;;;1071.97;999.63;;;;;;;3.73;67.11;99890.19;684525;28;22373;-68
2021/12/01 00:53:05;;;;;;;1072.20;999.67;;;;;;;3.75;67.23;99885.56;682070;28;46301;-68
2021/12/01 00:53:27;;;;;;;1072.10;999.78;;;;;;;3.75;67.33;99893.56;682536;28;46320;-68
2021/12/01 00:53:49;;;;;;;1070.43;998.10;;;;;;;3.74;67.11;99894.53;681908;28;46327;-68
2021/12/01 00:54:11;;;;;;;1070.80;998.47;;;;;;;3.75;67.25;99888.22;682049;28;69442;-68
2021/12/01 00:54:35;;;;;;;1074.47;999.90;;;;;;;3.75;67.30;99891.72;682952;28;22437;-68
2021/12/01 00:54:58;;;;;;;1072.68;999.83;;;;;;;3.76;67.42;99896.09;679927;28;115293;-68
2021/12/01 00:55:20;;;;;;;1068.47;996.28;;;;;;;3.75;67.34;99888.22;682599;28;45270;-68
2021/12/01 00:55:43;;;;;;;1074.65;999.90;;;;;;;3.76;67.36;99892.56;682440;28;45255;-68
2021/12/01 00:56:06;;;;;;;1074.13;999.90;;;;;;;3.75;67.32;99889.06;681210;28;69240;-68
2021/12/01 00:56:27;;;;;;;1077.93;999.90;;;;;;;3.77;67.21;99896.91;686674;28;14188;-68
2021/12/01 00:56:50;;;;;;;1077.00;999.90;;;;;;;3.77;67.29;99891.56;683427;28;46434;-68
2021/12/01 00:57:11;;;;;;;1079.85;999.90;;;;;;;3.76;67.22;99884.53;683165;28;22309;-68
2021/12/01 00:57:32;;;;;;;1073.75;999.90;;;;;;;3.76;67.23;99887.22;682026;28;22304;-68
2021/12/01 00:57:55;;;;;;;1072.20;999.53;;;;;;;3.78;67.19;99887.91;680477;28;46848;-68
2021/12/01 00:58:17;;;;;;;1069.32;997.10;;;;;;;3.77;67.03;99891.56;681543;28;67480;-68
2021/12/01 00:58:38;;;;;;;1070.82;998.60;;;;;;;3.76;67.15;99884.53;683110;28;22299;-68
2021/12/01 00:59:00;;;;;;;1075.25;999.90;;;;;;;3.77;67.12;99886.22;684972;28;23533;-68
2021/12/01 00:59:22;;;;;;;1076.13;999.90;;;;;;;3.76;67.26;99890.75;681578;28;67629;-68
2021/12/01 00:59:44;;;;;;;1072.22;999.65;;;;;;;3.75;67.11;99888.22;681833;28;46429;-68
2021/12/01 01:00:08;;;;;;;1071.60;999.20;;;;;;;3.74;67.24;99886.53;682972;28;23709;-68
2021/12/01 01:00:32;;;;;;;1074.05;999.90;;;;;;;3.73;67.24;99885.69;680008;28;116219;-68
2021/12/01 01:00:54;;;;;;;1078.05;999.90;;;;;;;3.74;67.20;99890.03;681302;28;69312;-68
2021/12/01 01:01:15;;;;;;;1074.95;999.90;;;;;;;3.72;67.27;99886.69;681248;28;69445;-68
2021/12/01 01:01:37;;;;;;;1071.45;999.05;;;;;;;3.73;67.28;99879.50;683042;28;21549;-68
2021/12/01 01:01:59;;;;;;;1071.30;999.00;;;;;;;3.73;67.39;99885.69;683173;28;1976;-68
2021/12/01 01:02:21;;;;;;;1066.15;994.10;;;;;;;3.72;67.46;99883.19;682128;28;46384;-68
2021/12/01 01:02:42;;;;;;;1061.75;989.85;;;;;;;3.71;67.21;99889.50;681843;28;22342;-68
2021/12/01 01:03:03;;;;;;;1064.95;992.97;;;;;;;3.67;67.66;99880.97;682044;28;43722;-67
2021/12/01 01:03:27;;;;;;;1061.18;989.38;;;;;;;3.69;67.54;99880.81;683735;28;1625;-68
2021/12/01 01:03:49;;;;;;;1058.55;986.85;;;;;;;3.65;67.54;99876.75;679972;28;92085;-68
2021/12/01 01:04:10;;;;;;;1058.60;986.90;;;;;;;3.67;67.33;99886.31;682850;28;22127;-68
2021/12/01 01:04:31;;;;;;;1058.22;986.53;;;;;;;3.67;67.51;99880.97;682291;28;46188;-68
2021/12/01 01:04:53;;;;;;;1057.00;985.40;;;;;;;3.67;67.45;99880.13;682720;28;22206;-68
2021/12/01 01:05:15;;;;;;;1056.25;984.80;;;;;;;3.66;67.43;99881.97;682885;28;22411;-68
2021/12/01 01:05:37;;;;;;;1055.45;984.05;;;;;;;3.66;67.36;99879.28;681620;28;68359;-68
2021/12/01 01:06:00;;;;;;;1049.80;978.50;;;;;;;3.67;67.32;99875.63;682380;28;46673;-68
2021/12/01 01:06:22;;;;;;;1048.22;977.03;;;;;;;3.65;67.18;99877.59;681676;28;68400;-68
2021/12/01 01:06:43;;;;;;;1050.40;979.10;;;;;;;3.65;67.55;99877.59;682495;28;46344;-68
2021/12/01 01:07:05;;;;;;;1051.18;979.85;;;;;;;3.65;67.54;99879.44;683436;28;6833;-68
2021/12/01 01:07:26;;;;;;;1047.97;976.78;;;;;;;3.64;67.40;99875.94;682352;28;45187;-68
2021/12/01 01:07:49;;;;;;;1047.72;976.35;;;;;;;3.61;67.67;99870.91;681468;28;22389;-67
2021/12/01 01:08:10;;;;;;;1042.00;970.97;;;;;;;3.64;67.51;99875.06;681788;28;69507;-68
2021/12/01 01:08:31;;;;;;;1044.95;973.85;;;;;;;3.65;67.54;99879.44;682275;28;44400;-68
2021/12/01 01:08:53;;;;;;;1045.05;974.05;;;;;;;3.65;67.42;99868.75;683186;28;20500;-68
2021/12/01 01:09:16;;;;;;;1041.07;970.17;;;;;;;3.65;67.30;99871.44;682128;28;47629;-68
2021/12/01 01:09:38;;;;;;;1041.50;970.45;;;;;;;3.66;67.62;99876.63;681408;28;69211;-68
2021/12/01 01:10:06;;;;;;;1040.35;969.45;;;;;;;3.66;67.41;99868.59;682431;28;46226;-68
2021/12/01 01:10:45;;;;;;;1040.90;969.92;;;;;;;3.67;67.67;99872.09;680030;28;114366;-68
2021/12/01 01:16:22;;;;;;;1043.90;972.75;;;;;;;3.67;67.59;99870.28;678908;28;137647;-68
2021/12/01 01:16:41;;;;;;;1051.20;979.90;;;;;;;3.60;67.51;99870.06;676964;28;139055;-68
2021/12/01 01:17:06;;;;;;;1049.95;978.60;;;;;;;3.59;67.62;99867.56;680670;28;71716;-68
2021/12/01 01:17:36;;;;;;;1045.00;973.90;;;;;;;3.60;67.60;99864.75;681501;28;113339;-68
2021/12/01 01:18:05;;;;;;;1050.97;979.42;;;;;;;3.60;67.52;99862.06;677616;28;155268;-67
2021/12/01 01:18:29;;;;;;;1051.70;980.30;;;;;;;3.58;67.84;99860.53;677425;29;136119;-68
2021/12/01 01:18:53;;;;;;;1050.47;978.97;;;;;;;3.61;67.74;99863.72;679211;28;92624;-68
2021/12/01 01:19:16;;;;;;;1051.30;979.80;;;;;;;3.60;67.83;99864.75;681012;28;86729;-69
2021/12/01 01:19:38;;;;;;;1049.97;978.58;;;;;;;3.61;67.69;99862.91;680020;29;56896;-68
2021/12/01 01:20:00;;;;;;;1047.05;975.75;;;;;;;3.60;67.78;99867.41;682758;28;46397;-68
2021/12/01 01:20:21;;;;;;;1050.45;979.05;;;;;;;3.61;67.63;99868.22;683834;28;22528;-68
2021/12/01 01:20:43;;;;;;;1046.38;975.17;;;;;;;3.62;67.64;99861.91;682398;28;46616;-67
2021/12/01 01:21:07;;;;;;;1045.88;974.67;;;;;;;3.63;67.75;99873.41;687440;28;42664;-68
2021/12/01 01:21:31;;;;;;;1046.40;975.17;;;;;;;3.62;67.87;99869.91;683495;28;90759;-68
2021/12/01 01:21:55;;;;;;;1043.40;972.30;;;;;;;3.62;67.77;99867.25;682522;28;114988;-68
2021/12/01 01:22:16;;;;;;;1046.55;975.35;;;;;;;3.61;67.76;99865.56;683933;28;67161;-68
2021/12/01 01:22:38;;;;;;;1049.22;977.90;;;;;;;3.58;67.61;99863.19;682394;28;42348;-68
2021/12/01 01:23:00;;;;;;;1043.25;972.22;;;;;;;3.62;67.85;99867.25;681627;28;46412;-68
2021/12/01 01:23:24;;;;;;;1043.15;972.22;;;;;;;3.61;67.81;99860.22;681640;28;45389;-68
2021/12/01 01:23:47;;;;;;;1045.88;974.67;;;;;;;3.60;67.74;99862.06;679648;28;137824;-68
2021/12/01 01:24:10;;;;;;;1041.78;970.78;;;;;;;3.61;67.85;99863.72;682877;28;46247;-68
2021/12/01 01:24:33;;;;;;;1041.55;970.55;;;;;;;3.60;67.70;99859.41;682800;28;46323;-68
2021/12/01 01:24:54;;;;;;;1045.45;974.30;;;;;;;3.61;67.89;99861.06;682117;28;46333;-68
2021/12/01 01:25:16;;;;;;;1042.50;971.50;;;;;;;3.62;67.94;99864.59;682471;28;44161;-68
2021/12/01 01:25:37;;;;;;;1042.40;971.40;;;;;;;3.61;67.97;99860.22;683056;28;23283;-68
2021/12/01 01:26:00;;;;;;;1049.10;977.85;;;;;;;3.63;67.87;99862.75;682332;28;46141;-68
2021/12/01 01:26:23;;;;;;;1047.68;976.38;;;;;;;3.64;68.33;99859.91;681532;28;69418;-68
2021/12/01 01:26:45;;;;;;;1044.82;973.63;;;;;;;3.65;67.96;99858.06;681214;28;67488;-68
2021/12/01 01:27:07;;;;;;;1042.93;971.95;;;;;;;3.65;67.98;99861.56;682180;28;44142;-68
2021/12/01 01:27:29;;;;;;;1042.90;971.90;;;;;;;3.66;67.87;99862.44;682505;28;43907;-68
2021/12/01 01:27:50;;;;;;;1046.93;975.63;;;;;;;3.66;67.99;99857.09;680957;28;44441;-68
2021/12/01 01:28:12;;;;;;;1043.55;972.47;;;;;;;3.66;67.92;99863.25;682988;28;21340;-68
2021/12/01 01:28:33;;;;;;;1045.28;974.13;;;;;;;3.67;68.09;99856.09;682378;28;46396;-68
2021/12/01 01:28:56;;;;;;;1044.55;973.42;;;;;;;3.67;68.05;99862.28;683172;28;23491;-68
2021/12/01 01:29:21;;;;;;;1050.00;978.60;;;;;;;3.67;67.96;99859.59;681343;28;70294;-68
2021/12/01 01:29:42;;;;;;;1051.43;980.13;;;;;;;3.66;68.10;99854.44;679614;28;115080;-68
2021/12/01 01:30:07;;;;;;;1043.25;972.38;;;;;;;3.68;67.84;99857.78;683550;28;13488;-68
2021/12/01 01:30:30;;;;;;;1049.68;978.60;;;;;;;3.68;68.03;99850.59;682247;28;45232;-68
2021/12/01 01:30:52;;;;;;;1050.40;979.10;;;;;;;3.68;67.87;99858.59;681454;28;69206;-68
2021/12/01 01:31:16;;;;;;;1039.28;968.45;;;;;;;3.68;67.99;99855.94;682499;28;45196;-68
2021/12/01 01:31:39;;;;;;;1046.32;975.10;;;;;;;3.69;67.97;99854.13;681265;28;70152;-68
2021/12/01 01:32:00;;;;;;;1051.28;979.83;;;;;;;3.69;68.11;99852.28;681230;28;67467;-68
2021/12/01 01:32:22;;;;;;;1047.63;976.45;;;;;;;3.68;68.05;99839.06;683013;28;23477;-68
2021/12/01 01:32:43;;;;;;;1047.22;976.05;;;;;;;3.69;68.14;99846.94;681351;28;45233;-68
2021/12/01 01:33:05;;;;;;;1048.35;977.05;;;;;;;3.69;67.87;99852.28;683271;28;22396;-68
2021/12/01 01:33:27;;;;;;;1049.90;978.50;;;;;;;3.69;68.15;99851.44;682165;28;46333;-68
2021/12/01 01:33:49;;;;;;;1050.47;979.08;;;;;;;3.70;67.99;99850.44;682368;28;43786;-68
2021/12/01 01:34:11;;;;;;;1047.95;976.78;;;;;;;3.71;67.99;99849.44;682015;28;44336;-68
2021/12/01 01:34:34;;;;;;;1047.97;976.78;;;;;;;3.70;68.07;99853.09;682077;28;44388;-68
2021/12/01 01:34:55;;;;;;;1048.43;977.20;;;;;;;3.69;67.91;99846.94;681081;28;69554;-68
2021/12/01 01:35:18;;;;;;;1046.90;975.75;;;;;;;3.69;68.42;99854.13;683154;28;22275;-68
2021/12/01 01:35:40;;;;;;;1045.35;974.15;;;;;;;3.69;68.09;99849.59;682260;28;69409;-68
2021/12/01 01:36:02;;;;;;;1044.40;973.22;;;;;;;3.70;68.24;99855.78;683446;28;70542;-68
2021/12/01 01:36:26;;;;;;;1043.10;972.08;;;;;;;3.68;68.03;99853.25;685790;28;22541;-68
2021/12/01 01:36:48;;;;;;;1036.82;966.05;;;;;;;3.68;68.01;99847.09;681925;28;90089;-68
2021/12/01 01:37:10;;;;;;;1038.38;967.50;;;;;;;3.68;68.24;99841.75;683456;28;47507;-68
2021/12/01 01:37:31;;;;;;;1036.63;965.83;;;;;;;3.68;68.08;99850.59;683419;28;44393;-68
2021/12/01 01:37:52;;;;;;;1042.75;971.50;;;;;;;3.68;68.23;99847.91;682921;28;21525;-68
2021/12/01 01:38:15;;;;;;;1048.95;977.55;;;;;;;3.68;68.31;99841.75;684099;28;21303;-68
2021/12/01 01:38:36;;;;;;;1055.75;984.15;;;;;;;3.68;68.22;99847.91;682390;28;68432;-68
2021/12/01 01:38:58;;;;;;;1060.93;989.13;;;;;;;3.67;68.10;99840.06;683265;28;45216;-68
2021/12/01 01:39:20;;;;;;;1060.75;988.85;;;;;;;3.68;68.32;99839.06;684382;28;17323;-68
2021/12/01 01:39:42;;;;;;;1061.20;989.30;;;;;;;3.69;68.34;99846.09;683217;28;45264;-69
2021/12/01 01:40:05;;;;;;;1061.20;989.40;;;;;;;3.70;68.21;99842.41;682716;28;69411;-68
2021/12/01 01:40:26;;;;;;;1059.30;987.55;;;;;;;3.70;68.20;99827.25;683085;28;46355;-68
2021/12/01 01:40:48;;;;;;;1059.72;987.92;;;;;;;3.70;68.22;99839.75;684111;28;22400;-68
2021/12/01 01:41:12;;;;;;;1066.18;994.17;;;;;;;3.69;68.39;99843.44;683106;28;46517;-68
2021/12/01 01:41:33;;;;;;;1066.60;994.50;;;;;;;3.68;68.22;99837.22;681329;28;92410;-69
2021/12/01 01:41:54;;;;;;;1068.60;996.40;;;;;;;3.69;68.08;99838.91;683132;28;46741;-68
2021/12/01 01:42:17;;;;;;;1068.60;996.42;;;;;;;3.68;68.23;99834.56;684084;28;21563;-68
2021/12/01 01:42:40;;;;;;;1076.40;999.90;;;;;;;3.70;68.22;99839.75;680124;28;115890;-68
2021/12/01 01:43:02;;;;;;;1081.43;999.90;;;;;;;3.69;68.43;99830.91;684468;28;22383;-68
2021/12/01 01:43:23;;;;;;;1079.63;999.90;;;;;;;3.68;68.54;99833.72;684208;28;22384;-68
2021/12/01 01:43:51;;;;;;;1072.70;999.90;;;;;;;3.69;68.34;99836.25;683450;28;44426;-68
2021/12/01 01:44:12;;;;;;;1074.10;999.90;;;;;;;3.68;68.14;99836.41;680416;28;137576;-67
2021/12/01 01:44:34;;;;;;;1072.00;999.28;;;;;;;3.68;68.23;99839.06;683616;28;22387;-68
2021/12/01 01:44:55;;;;;;;1070.90;998.60;;;;;;;3.69;68.39;99830.91;684214;28;22294;-68
2021/12/01 01:45:17;;;;;;;1080.38;999.90;;;;;;;3.69;68.48;99830.09;683405;28;45314;-67
2021/12/01 01:45:39;;;;;;;1082.28;999.90;;;;;;;3.69;68.47;99835.41;684076;28;23453;-68
2021/12/01 01:46:01;;;;;;;1080.00;999.90;;;;;;;3.68;68.32;99833.72;684296;28;14976;-68
2021/12/01 01:46:22;;;;;;;1085.47;999.90;;;;;;;3.69;68.34;99822.91;683899;28;23450;-68
2021/12/01 01:46:44;;;;;;;1083.72;999.90;;;;;;;3.70;68.50;99829.94;683296;28;46387;-68
2021/12/01 01:47:08;;;;;;;1083.60;999.90;;;;;;;3.71;68.47;99826.25;681634;28;90696;-68
2021/12/01 01:47:29;;;;;;;1084.35;999.90;;;;;;;3.68;68.46;99817.72;683888;28;22392;-68